FKN weather

Franklin Municipal-John Beverly Rose Airport
Franklin, Virginia, United States

Public forecast

Using degrees Fahrenheit for public forecast. Weather courtesy of forecast.io.

METAR (pilot weather report)

Retrieved 2019/07/17 12:35 UTC (43 seconds ago):

KFKN 171235Z AUTO 20008KT 10SM CLR 28/27 A3006 RMK AO2 T02750265

TAF (pilot weather forecast)

Closest forecast is Felker Army Air Field, 29.7 nm (55.0 km) NNE. Retrieved 2019/07/17 10:13 UTC (2 hours ago):

TAF KFAF 171000Z 1710/1816 20009KT 9999 SCT050 SCT200 QNH2998INS BECMG 1715/1716 22010G16KT 9999 SCT050 BKN200 QNH2985INS TEMPO 1719/1723 VRB15G25KT 8000 -TSRA BKN040CB BECMG 1811/1812 22009KT 8000 -SHRA BKN035 QNH2987INS TX36/1719Z TN26/1710Z